createdAt,value
2023-02-25T00:00:16.692Z,5.02
2023-02-25T00:01:16.641Z,5.02
2023-02-25T00:02:16.706Z,5.02
2023-02-25T00:03:16.653Z,5.01
2023-02-25T00:04:16.610Z,5.02
2023-02-25T00:05:16.596Z,5.02
2023-02-25T00:06:16.622Z,4.99
2023-02-25T00:07:16.604Z,4.98
2023-02-25T00:08:16.565Z,4.96
2023-02-25T00:09:16.563Z,4.96
2023-02-25T00:10:16.565Z,4.95
2023-02-25T00:11:16.544Z,4.94
2023-02-25T00:12:16.561Z,4.94
2023-02-25T00:13:19.168Z,4.94
2023-02-25T00:14:16.506Z,4.94
2023-02-25T00:15:16.498Z,4.94
2023-02-25T00:16:16.566Z,4.94
2023-02-25T00:17:16.485Z,4.95
2023-02-25T00:18:16.494Z,4.95
2023-02-25T00:19:16.450Z,4.96
2023-02-25T00:20:16.438Z,4.96
2023-02-25T00:21:16.426Z,4.98
2023-02-25T00:22:16.432Z,4.99
2023-02-25T00:23:16.412Z,4.99
2023-02-25T00:24:17.247Z,4.99
2023-02-25T00:25:16.389Z,5.01
2023-02-25T00:26:16.369Z,5.01
2023-02-25T00:27:16.382Z,5.04
2023-02-25T00:28:16.353Z,5.04
2023-02-25T00:29:16.346Z,5.04
2023-02-25T00:30:16.334Z,5.04
2023-02-25T00:31:16.450Z,5.02
2023-02-25T00:32:16.567Z,5.01
2023-02-25T00:33:16.312Z,5.02
2023-02-25T00:34:16.335Z,5.01
2023-02-25T00:35:16.283Z,4.99
2023-02-25T00:36:16.261Z,4.98
2023-02-25T00:37:16.329Z,4.98
2023-02-25T00:38:16.445Z,4.95
2023-02-25T00:39:16.254Z,4.95
2023-02-25T00:40:16.261Z,4.94
2023-02-25T00:41:16.219Z,4.94
2023-02-25T00:42:16.228Z,4.92
2023-02-25T00:43:16.209Z,4.92
2023-02-25T00:44:16.211Z,4.92
2023-02-25T00:45:16.166Z,4.91
2023-02-25T00:46:16.253Z,4.89
2023-02-25T00:47:16.182Z,4.89
2023-02-25T00:48:16.157Z,4.88
2023-02-25T00:49:31.509Z,4.88
2023-02-25T00:50:16.128Z,4.88
2023-02-25T00:51:16.110Z,4.86
2023-02-25T00:52:16.092Z,4.86
2023-02-25T00:53:16.093Z,4.84
2023-02-25T00:54:16.072Z,4.80
2023-02-25T00:55:16.092Z,4.80
2023-02-25T00:56:16.054Z,4.79
2023-02-25T00:57:16.034Z,4.77
2023-02-25T00:58:16.043Z,4.77
2023-02-25T00:59:16.018Z,4.77
2023-02-25T01:00:16.011Z,4.76
2023-02-25T01:01:16.023Z,4.73
2023-02-25T01:02:15.980Z,4.73
2023-02-25T01:03:16.019Z,4.70
2023-02-25T01:04:15.957Z,4.70
2023-02-25T01:05:15.956Z,4.70
2023-02-25T01:06:15.965Z,4.70
2023-02-25T01:07:15.930Z,4.67
2023-02-25T01:08:15.932Z,4.67
2023-02-25T01:09:15.904Z,4.67
2023-02-25T01:10:15.949Z,4.69
2023-02-25T01:11:15.878Z,4.67
2023-02-25T01:12:15.908Z,4.69
2023-02-25T01:13:15.878Z,4.69
2023-02-25T01:14:15.859Z,4.69
2023-02-25T01:15:15.836Z,4.69
2023-02-25T01:16:15.915Z,4.65
2023-02-25T01:17:15.826Z,4.67
2023-02-25T01:18:15.853Z,4.65
2023-02-25T01:19:15.951Z,4.65
2023-02-25T01:20:15.786Z,4.64
2023-02-25T01:21:15.779Z,4.64
2023-02-25T01:22:15.769Z,4.64
2023-02-25T01:23:15.765Z,4.65
2023-02-25T01:24:15.751Z,4.65
2023-02-25T01:25:15.733Z,4.67
2023-02-25T01:26:15.729Z,4.67
2023-02-25T01:27:15.736Z,4.69
2023-02-25T01:28:15.716Z,4.69
2023-02-25T01:29:15.691Z,4.69
2023-02-25T01:30:15.671Z,4.69
2023-02-25T01:31:15.765Z,4.70
2023-02-25T01:32:15.862Z,4.70
2023-02-25T01:33:15.658Z,4.69
2023-02-25T01:34:15.633Z,4.70
2023-02-25T01:35:15.630Z,4.69
2023-02-25T01:36:15.612Z,4.69
2023-02-25T01:37:15.601Z,4.67
2023-02-25T01:38:15.612Z,4.69
2023-02-25T01:39:15.588Z,4.69
2023-02-25T01:40:15.574Z,4.69
2023-02-25T01:41:15.556Z,4.70
2023-02-25T01:42:15.557Z,4.70
2023-02-25T01:43:15.564Z,4.70
2023-02-25T01:44:15.524Z,4.70
2023-02-25T01:45:15.518Z,4.72
2023-02-25T01:46:15.533Z,4.70
2023-02-25T01:47:15.498Z,4.69
2023-02-25T01:48:15.506Z,4.69
2023-02-25T01:49:15.465Z,4.70
2023-02-25T01:50:15.464Z,4.70
2023-02-25T01:51:15.446Z,4.69
2023-02-25T01:52:15.441Z,4.69
2023-02-25T01:53:15.461Z,4.67
2023-02-25T01:54:15.426Z,4.67
2023-02-25T01:55:15.416Z,4.69
2023-02-25T01:56:15.400Z,4.67
2023-02-25T01:57:15.390Z,4.67
2023-02-25T01:58:15.388Z,4.65
2023-02-25T01:59:15.367Z,4.67
2023-02-25T02:00:15.357Z,4.67
2023-02-25T02:01:15.394Z,4.65
2023-02-25T02:02:15.342Z,4.67
2023-02-25T02:03:15.331Z,4.64
2023-02-25T02:04:15.316Z,4.65
2023-02-25T02:05:15.337Z,4.67
2023-02-25T02:06:15.285Z,4.64
2023-02-25T02:07:15.280Z,4.65
2023-02-25T02:08:15.344Z,4.64
2023-02-25T02:09:15.262Z,4.65
2023-02-25T02:10:15.244Z,4.67
2023-02-25T02:11:15.242Z,4.67
2023-02-25T02:12:15.223Z,4.64
2023-02-25T02:13:15.229Z,4.64
2023-02-25T02:14:15.223Z,4.64
2023-02-25T02:15:15.197Z,4.62
2023-02-25T02:16:15.218Z,4.62
2023-02-25T02:17:15.190Z,4.62
2023-02-25T02:18:15.180Z,4.62
2023-02-25T02:19:15.176Z,4.65
2023-02-25T02:20:15.138Z,4.64
2023-02-25T02:21:15.127Z,4.61
2023-02-25T02:22:15.120Z,4.64
2023-02-25T02:23:15.127Z,4.61
2023-02-25T02:24:15.094Z,4.61
2023-02-25T02:25:15.079Z,4.61
2023-02-25T02:26:15.064Z,4.61
2023-02-25T02:27:15.059Z,4.61
2023-02-25T02:28:15.092Z,4.62
2023-02-25T02:29:15.035Z,4.59
2023-02-25T02:30:15.036Z,4.59
2023-02-25T02:31:15.178Z,4.58
2023-02-25T02:32:15.173Z,4.59
2023-02-25T02:33:15.018Z,4.59
2023-02-25T02:34:14.986Z,4.58
2023-02-25T02:35:14.994Z,4.58
2023-02-25T02:36:14.969Z,4.58
2023-02-25T02:37:21.491Z,4.57
2023-02-25T02:38:14.951Z,4.55
2023-02-25T02:39:14.932Z,4.52
2023-02-25T02:40:14.930Z,4.54
2023-02-25T02:41:14.991Z,4.52
2023-02-25T02:42:14.897Z,4.47
2023-02-25T02:43:14.904Z,4.47
2023-02-25T02:44:14.872Z,4.47
2023-02-25T02:45:14.876Z,4.47
2023-02-25T02:46:14.924Z,4.44
2023-02-25T02:47:14.850Z,4.46
2023-02-25T02:48:14.847Z,4.43
2023-02-25T02:49:14.830Z,4.40
2023-02-25T02:50:14.815Z,4.40
2023-02-25T02:51:14.809Z,4.40
2023-02-25T02:52:14.781Z,4.39
2023-02-25T02:53:14.795Z,4.37
2023-02-25T02:54:14.807Z,4.34
2023-02-25T02:55:14.762Z,4.36
2023-02-25T02:56:14.740Z,4.34
2023-02-25T02:57:14.735Z,4.33
2023-02-25T02:58:14.746Z,4.33
2023-02-25T02:59:14.754Z,4.29
2023-02-25T03:00:14.714Z,4.28
2023-02-25T03:01:14.686Z,4.28
2023-02-25T03:02:14.674Z,4.25
2023-02-25T03:03:14.693Z,4.25
2023-02-25T03:04:14.683Z,4.22
2023-02-25T03:05:14.651Z,4.21
2023-02-25T03:06:14.631Z,4.19
2023-02-25T03:07:14.621Z,4.19
2023-02-25T03:08:14.629Z,4.19
2023-02-25T03:09:14.591Z,4.16
2023-02-25T03:10:14.588Z,4.15
2023-02-25T03:11:14.579Z,4.12
2023-02-25T03:12:14.564Z,4.08
2023-02-25T03:13:14.577Z,4.08
2023-02-25T03:14:14.556Z,4.08
2023-02-25T03:15:14.567Z,4.07
2023-02-25T03:16:14.645Z,4.07
2023-02-25T03:17:14.530Z,4.06
2023-02-25T03:18:14.522Z,4.00
2023-02-25T03:19:14.494Z,4.01
2023-02-25T03:20:14.495Z,4.00
2023-02-25T03:21:14.469Z,4.00
2023-02-25T03:22:14.479Z,3.97
2023-02-25T03:23:14.490Z,3.97
2023-02-25T03:24:14.481Z,3.97
2023-02-25T03:25:14.433Z,3.97
2023-02-25T03:26:14.429Z,3.96
2023-02-25T03:27:14.406Z,3.94
2023-02-25T03:28:14.400Z,3.94
2023-02-25T03:29:14.405Z,3.92
2023-02-25T03:30:14.375Z,3.90
2023-02-25T03:31:14.364Z,3.92
2023-02-25T03:32:14.491Z,3.90
2023-02-25T03:33:14.340Z,3.88
2023-02-25T03:34:14.356Z,3.88
2023-02-25T03:35:14.335Z,3.85
2023-02-25T03:36:14.324Z,3.86
2023-02-25T03:37:14.301Z,3.86
2023-02-25T03:38:14.294Z,3.86
2023-02-25T03:39:14.296Z,3.86
2023-02-25T03:40:14.276Z,3.85
2023-02-25T03:41:14.252Z,3.83
2023-02-25T03:42:14.248Z,3.83
2023-02-25T03:43:14.235Z,3.82
2023-02-25T03:44:14.240Z,3.82
2023-02-25T03:45:14.220Z,3.82
2023-02-25T03:46:14.270Z,3.82
2023-02-25T03:47:14.204Z,3.82
2023-02-25T03:48:14.182Z,3.80
2023-02-25T03:49:14.198Z,3.80
2023-02-25T03:50:14.188Z,3.82
2023-02-25T03:51:14.159Z,3.80
2023-02-25T03:52:14.155Z,3.80
2023-02-25T03:53:14.130Z,3.79
2023-02-25T03:54:14.148Z,3.80
2023-02-25T03:55:14.105Z,3.78
2023-02-25T03:56:14.127Z,3.78
2023-02-25T03:57:14.086Z,3.79
2023-02-25T03:58:14.087Z,3.78
2023-02-25T03:59:14.071Z,3.76
2023-02-25T04:00:14.083Z,3.76
2023-02-25T04:01:16.951Z,3.79
2023-02-25T04:02:14.068Z,3.76
2023-02-25T04:03:14.017Z,3.76
2023-02-25T04:04:14.088Z,3.78
2023-02-25T04:05:13.993Z,3.76
2023-02-25T04:06:13.997Z,3.79
2023-02-25T04:07:13.968Z,3.79
2023-02-25T04:08:13.966Z,3.78
2023-02-25T04:09:13.968Z,3.78
2023-02-25T04:10:13.938Z,3.79
2023-02-25T04:11:13.921Z,3.80
2023-02-25T04:12:13.917Z,3.79
2023-02-25T04:13:13.905Z,3.78
2023-02-25T04:14:13.911Z,3.79
2023-02-25T04:15:13.895Z,3.79
2023-02-25T04:16:13.993Z,3.82
2023-02-25T04:17:13.869Z,3.83
2023-02-25T04:18:13.860Z,3.80
2023-02-25T04:19:13.869Z,3.79
2023-02-25T04:20:13.831Z,3.79
2023-02-25T04:21:13.821Z,3.80
2023-02-25T04:22:13.818Z,3.79
2023-02-25T04:23:13.823Z,3.79
2023-02-25T04:24:13.805Z,3.78
2023-02-25T04:25:13.791Z,3.79
2023-02-25T04:26:13.762Z,3.80
2023-02-25T04:27:13.769Z,3.79
2023-02-25T04:28:13.753Z,3.80
2023-02-25T04:29:13.759Z,3.78
2023-02-25T04:30:13.734Z,3.76
2023-02-25T04:31:13.841Z,3.78
2023-02-25T04:32:13.852Z,3.76
2023-02-25T04:33:13.709Z,3.79
2023-02-25T04:34:13.703Z,3.79
2023-02-25T04:35:13.702Z,3.79
2023-02-25T04:36:13.668Z,3.79
2023-02-25T04:37:13.656Z,3.79
2023-02-25T04:38:13.647Z,3.80
2023-02-25T04:39:13.651Z,3.82
2023-02-25T04:40:13.627Z,3.82
2023-02-25T04:41:13.602Z,3.82
2023-02-25T04:42:13.589Z,3.82
2023-02-25T04:43:13.596Z,3.82
2023-02-25T04:44:13.621Z,3.82
2023-02-25T04:45:13.563Z,3.83
2023-02-25T04:46:13.588Z,3.85
2023-02-25T04:47:13.557Z,3.83
2023-02-25T04:48:13.525Z,3.82
2023-02-25T04:49:13.532Z,3.80
2023-02-25T04:50:13.519Z,3.82
2023-02-25T04:51:13.497Z,3.80
2023-02-25T04:52:13.485Z,3.80
2023-02-25T04:53:13.489Z,3.79
2023-02-25T04:54:13.552Z,3.79
2023-02-25T04:55:13.466Z,3.80
2023-02-25T04:56:13.450Z,3.82
2023-02-25T04:57:13.423Z,3.80
2023-02-25T04:58:13.410Z,3.79
2023-02-25T04:59:13.430Z,3.80
2023-02-25T05:00:13.406Z,3.80
2023-02-25T05:01:13.404Z,3.80
2023-02-25T05:02:13.397Z,3.80
2023-02-25T05:03:13.369Z,3.82
2023-02-25T05:04:13.371Z,3.82
2023-02-25T05:05:13.386Z,3.82
2023-02-25T05:06:13.330Z,3.82
2023-02-25T05:07:13.323Z,3.82
2023-02-25T05:08:13.321Z,3.83
2023-02-25T05:09:13.322Z,3.85
2023-02-25T05:10:13.283Z,3.85
2023-02-25T05:11:13.279Z,3.83
2023-02-25T05:12:13.290Z,3.85
2023-02-25T05:13:13.257Z,3.85
2023-02-25T05:14:13.282Z,3.85
2023-02-25T05:15:13.250Z,3.85
2023-02-25T05:16:13.292Z,3.83
2023-02-25T05:17:13.215Z,3.85
2023-02-25T05:18:13.210Z,3.86
2023-02-25T05:19:13.212Z,3.83
2023-02-25T05:20:13.468Z,3.82
2023-02-25T05:21:13.174Z,3.83
2023-02-25T05:22:13.163Z,3.83
2023-02-25T05:23:13.158Z,3.85
2023-02-25T05:24:13.156Z,3.86
2023-02-25T05:25:13.131Z,3.85
2023-02-25T05:26:13.146Z,3.86
2023-02-25T05:27:13.110Z,3.86
2023-02-25T05:28:13.106Z,3.88
2023-02-25T05:29:13.143Z,3.86
2023-02-25T05:30:13.094Z,3.86
2023-02-25T05:31:13.245Z,3.86
2023-02-25T05:32:13.276Z,3.85
2023-02-25T05:33:13.050Z,3.86
2023-02-25T05:34:13.082Z,3.86
2023-02-25T05:35:19.586Z,3.85
2023-02-25T05:36:13.001Z,3.85
2023-02-25T05:37:13.000Z,3.86
2023-02-25T05:38:12.989Z,3.86
2023-02-25T05:39:13.012Z,3.85
2023-02-25T05:40:12.978Z,3.85
2023-02-25T05:41:12.964Z,3.85
2023-02-25T05:42:12.947Z,3.85
2023-02-25T05:43:12.986Z,3.83
2023-02-25T05:44:12.952Z,3.85
2023-02-25T05:45:12.923Z,3.83
2023-02-25T05:46:12.906Z,3.83
2023-02-25T05:47:12.943Z,3.83
2023-02-25T05:48:12.896Z,3.83
2023-02-25T05:49:12.885Z,3.83
2023-02-25T05:50:12.908Z,3.82
2023-02-25T05:51:12.859Z,3.85
2023-02-25T05:52:12.845Z,3.83
2023-02-25T05:53:12.828Z,3.85
2023-02-25T05:54:12.846Z,3.82
2023-02-25T05:55:12.811Z,3.82
2023-02-25T05:56:12.787Z,3.83
2023-02-25T05:57:12.776Z,3.83
2023-02-25T05:58:12.783Z,3.85
2023-02-25T05:59:12.774Z,3.83
2023-02-25T06:00:12.764Z,3.82
2023-02-25T06:01:12.740Z,3.82
2023-02-25T06:02:12.775Z,3.85
2023-02-25T06:03:12.824Z,3.86
2023-02-25T06:04:12.732Z,3.85
2023-02-25T06:05:12.721Z,3.85
2023-02-25T06:06:12.690Z,3.85
2023-02-25T06:07:12.673Z,3.83
2023-02-25T06:08:12.663Z,3.83
2023-02-25T06:09:12.650Z,3.83
2023-02-25T06:10:12.652Z,3.83
2023-02-25T06:11:12.627Z,3.83
2023-02-25T06:12:12.610Z,3.83
2023-02-25T06:13:12.603Z,3.83
2023-02-25T06:14:12.603Z,3.85
2023-02-25T06:15:12.600Z,3.83
2023-02-25T06:16:12.651Z,3.85
2023-02-25T06:17:12.568Z,3.85
2023-02-25T06:18:12.562Z,3.85
2023-02-25T06:19:12.542Z,3.83
2023-02-25T06:20:12.562Z,3.85
2023-02-25T06:21:12.536Z,3.83
2023-02-25T06:22:12.511Z,3.85
2023-02-25T06:23:12.490Z,3.86
2023-02-25T06:24:12.486Z,3.86
2023-02-25T06:25:12.503Z,3.86
2023-02-25T06:26:12.452Z,3.86
2023-02-25T06:27:12.458Z,3.85
2023-02-25T06:28:12.441Z,3.85
2023-02-25T06:29:12.435Z,3.86
2023-02-25T06:30:12.447Z,3.85
2023-02-25T06:31:12.478Z,3.83
2023-02-25T06:32:12.564Z,3.83
2023-02-25T06:33:12.385Z,3.83
2023-02-25T06:34:12.377Z,3.82
2023-02-25T06:35:12.394Z,3.83
2023-02-25T06:36:12.364Z,3.83
2023-02-25T06:37:12.346Z,3.82
2023-02-25T06:38:12.334Z,3.80
2023-02-25T06:39:12.325Z,3.80
2023-02-25T06:40:12.336Z,3.79
2023-02-25T06:41:12.302Z,3.79
2023-02-25T06:42:12.292Z,3.78
2023-02-25T06:43:12.282Z,3.78
2023-02-25T06:44:13.779Z,3.78
2023-02-25T06:45:12.286Z,3.76
2023-02-25T06:46:12.316Z,3.78
2023-02-25T06:47:12.237Z,3.76
2023-02-25T06:48:12.235Z,3.76
2023-02-25T06:49:12.218Z,3.76
2023-02-25T06:50:12.233Z,3.76
2023-02-25T06:51:12.229Z,3.76
2023-02-25T06:52:12.185Z,3.78
2023-02-25T06:53:12.180Z,3.79
2023-02-25T06:54:12.162Z,3.79
2023-02-25T06:55:12.181Z,3.79
2023-02-25T06:56:12.153Z,3.78
2023-02-25T06:57:12.335Z,3.76
2023-02-25T06:58:14.154Z,3.78
2023-02-25T06:59:12.114Z,3.78
2023-02-25T07:00:12.156Z,3.76
2023-02-25T07:01:12.233Z,3.78
2023-02-25T07:02:12.078Z,3.76
2023-02-25T07:03:12.075Z,3.78
2023-02-25T07:04:12.127Z,3.79
2023-02-25T07:05:12.078Z,3.78
2023-02-25T07:06:12.041Z,3.78
2023-02-25T07:07:12.024Z,3.75
2023-02-25T07:08:12.011Z,3.76
2023-02-25T07:09:12.009Z,3.75
2023-02-25T07:10:12.022Z,3.72
2023-02-25T07:11:14.591Z,3.71
2023-02-25T07:12:11.975Z,3.71
2023-02-25T07:13:11.961Z,3.70
2023-02-25T07:14:11.960Z,3.67
2023-02-25T07:15:11.951Z,3.65
2023-02-25T07:16:12.039Z,3.62
2023-02-25T07:17:11.914Z,3.62
2023-02-25T07:18:11.903Z,3.62
2023-02-25T07:19:11.966Z,3.61
2023-02-25T07:20:11.942Z,3.61
2023-02-25T07:21:11.889Z,3.61
2023-02-25T07:22:11.866Z,3.60
2023-02-25T07:23:11.850Z,3.60
2023-02-25T07:24:11.863Z,3.57
2023-02-25T07:25:11.932Z,3.54
2023-02-25T07:26:11.811Z,3.54
2023-02-25T07:27:11.804Z,3.57
2023-02-25T07:28:11.812Z,3.58
2023-02-25T07:29:11.788Z,3.58
2023-02-25T07:30:11.810Z,3.58
2023-02-25T07:31:11.878Z,3.58
2023-02-25T07:32:12.084Z,3.58
2023-02-25T07:33:11.782Z,3.60
2023-02-25T07:34:11.752Z,3.58
2023-02-25T07:35:11.729Z,3.60
2023-02-25T07:36:11.726Z,3.58
2023-02-25T07:37:11.691Z,3.58
2023-02-25T07:38:11.687Z,3.60
2023-02-25T07:39:11.688Z,3.58
2023-02-25T07:40:11.697Z,3.54
2023-02-25T07:41:11.664Z,3.52
2023-02-25T07:42:11.650Z,3.52
2023-02-25T07:43:11.635Z,3.54
2023-02-25T07:44:11.622Z,3.53
2023-02-25T07:45:11.636Z,3.52
2023-02-25T07:46:11.637Z,3.54
2023-02-25T07:47:11.600Z,3.58
2023-02-25T07:48:11.592Z,3.60
2023-02-25T07:49:11.569Z,3.61
2023-02-25T07:50:12.868Z,3.64
2023-02-25T07:51:11.582Z,3.65
2023-02-25T07:52:11.534Z,3.68
2023-02-25T07:53:11.535Z,3.71
2023-02-25T07:54:11.513Z,3.70
2023-02-25T07:55:11.541Z,3.68
2023-02-25T07:56:11.498Z,3.71
2023-02-25T07:57:11.480Z,3.71
2023-02-25T07:58:11.471Z,3.71
2023-02-25T07:59:11.484Z,3.75
2023-02-25T08:00:11.480Z,3.75
2023-02-25T08:01:11.478Z,3.76
2023-02-25T08:02:11.482Z,3.76
2023-02-25T08:03:11.476Z,3.79
2023-02-25T08:04:11.410Z,3.79
2023-02-25T08:05:11.474Z,3.83
2023-02-25T08:06:11.390Z,3.80
2023-02-25T08:07:11.388Z,3.83
2023-02-25T08:08:11.362Z,3.82
2023-02-25T08:09:11.365Z,3.80
2023-02-25T08:10:11.364Z,3.80
2023-02-25T08:11:11.373Z,3.83
2023-02-25T08:12:11.327Z,3.85
2023-02-25T08:13:11.315Z,3.85
2023-02-25T08:14:11.296Z,3.85
2023-02-25T08:15:11.306Z,3.83
2023-02-25T08:16:11.382Z,3.83
2023-02-25T08:17:11.269Z,3.85
2023-02-25T08:18:11.268Z,3.86
2023-02-25T08:19:11.256Z,3.86
2023-02-25T08:20:11.248Z,3.88
2023-02-25T08:21:11.219Z,3.88
2023-02-25T08:22:11.214Z,3.89
2023-02-25T08:23:11.211Z,3.90
2023-02-25T08:24:11.195Z,3.90
2023-02-25T08:25:11.191Z,3.88
2023-02-25T08:26:11.162Z,3.86
2023-02-25T08:27:11.177Z,3.86
2023-02-25T08:28:11.153Z,3.88
2023-02-25T08:29:11.139Z,3.88
2023-02-25T08:30:11.134Z,3.88
2023-02-25T08:31:11.187Z,3.88
2023-02-25T08:32:11.223Z,3.89
2023-02-25T08:33:11.142Z,3.89
2023-02-25T08:34:11.092Z,3.89
2023-02-25T08:35:11.113Z,3.92
2023-02-25T08:36:11.073Z,3.94
2023-02-25T08:37:11.062Z,3.97
2023-02-25T08:38:11.034Z,3.97
2023-02-25T08:39:11.021Z,3.96
2023-02-25T08:40:11.049Z,3.97
2023-02-25T08:41:11.009Z,4.01
2023-02-25T08:42:11.001Z,4.00
2023-02-25T08:43:10.985Z,4.01
2023-02-25T08:44:10.977Z,4.01
2023-02-25T08:45:10.986Z,4.03
2023-02-25T08:46:10.946Z,4.04
2023-02-25T08:47:10.958Z,4.06
2023-02-25T08:48:10.928Z,4.08
2023-02-25T08:49:10.916Z,4.07
2023-02-25T08:50:10.937Z,4.07
2023-02-25T08:51:10.891Z,4.06
2023-02-25T08:52:10.879Z,4.06
2023-02-25T08:53:10.879Z,4.07
2023-02-25T08:54:10.856Z,4.07
2023-02-25T08:55:10.889Z,4.07
2023-02-25T08:56:10.840Z,4.07
2023-02-25T08:57:10.854Z,4.08
2023-02-25T08:58:10.813Z,4.10
2023-02-25T08:59:10.804Z,4.10
2023-02-25T09:00:10.819Z,4.10
2023-02-25T09:01:10.892Z,4.12
2023-02-25T09:02:10.774Z,4.08
2023-02-25T09:03:10.772Z,4.10
2023-02-25T09:04:10.805Z,4.10
2023-02-25T09:05:10.750Z,4.12
2023-02-25T09:06:10.734Z,4.14
2023-02-25T09:07:10.711Z,4.12
2023-02-25T09:08:10.728Z,4.10
2023-02-25T09:09:10.699Z,4.12
2023-02-25T09:10:10.717Z,4.12
2023-02-25T09:11:10.690Z,4.12
2023-02-25T09:12:10.672Z,4.12
2023-02-25T09:13:10.674Z,4.10
2023-02-25T09:14:10.674Z,4.07
2023-02-25T09:15:10.650Z,4.08
2023-02-25T09:16:10.709Z,4.07
2023-02-25T09:17:10.609Z,4.06
2023-02-25T09:18:10.617Z,4.07
2023-02-25T09:19:10.614Z,4.07
2023-02-25T09:20:10.591Z,4.03
2023-02-25T09:21:10.598Z,4.01
2023-02-25T09:22:10.557Z,4.01
2023-02-25T09:23:10.587Z,3.98
2023-02-25T09:24:10.578Z,4.00
2023-02-25T09:25:10.570Z,4.00
2023-02-25T09:26:10.520Z,4.03
2023-02-25T09:27:10.517Z,4.04
2023-02-25T09:28:10.487Z,4.08
2023-02-25T09:29:10.484Z,4.14
2023-02-25T09:30:10.497Z,4.19
2023-02-25T09:31:10.506Z,4.24
2023-02-25T09:32:10.572Z,4.28
2023-02-25T09:33:10.595Z,4.29
2023-02-25T09:34:10.427Z,4.29
2023-02-25T09:35:10.443Z,4.34
2023-02-25T09:36:10.415Z,4.34
2023-02-25T09:37:10.394Z,4.33
2023-02-25T09:38:10.393Z,4.34
2023-02-25T09:39:10.681Z,4.33
2023-02-25T09:40:10.381Z,4.29
2023-02-25T09:41:10.386Z,4.32
2023-02-25T09:42:10.353Z,4.32
2023-02-25T09:43:10.337Z,4.32
2023-02-25T09:44:10.321Z,4.33
2023-02-25T09:45:10.323Z,4.33
2023-02-25T09:46:10.375Z,4.33
2023-02-25T09:47:10.293Z,4.32
2023-02-25T09:48:10.283Z,4.29
2023-02-25T09:49:10.280Z,4.33
2023-02-25T09:50:10.267Z,4.32
2023-02-25T09:51:10.270Z,4.34
2023-02-25T09:52:10.231Z,4.37
2023-02-25T09:53:10.242Z,4.40
2023-02-25T09:54:10.213Z,4.43
2023-02-25T09:55:10.218Z,4.44
2023-02-25T09:56:10.195Z,4.43
2023-02-25T09:57:10.204Z,4.42
2023-02-25T09:58:10.170Z,4.43
2023-02-25T09:59:10.163Z,4.46
2023-02-25T10:00:10.172Z,4.47
2023-02-25T10:01:10.150Z,4.51
2023-02-25T10:02:10.243Z,4.52
2023-02-25T10:03:10.294Z,4.51
2023-02-25T10:04:10.107Z,4.47
2023-02-25T10:05:10.116Z,4.43
2023-02-25T10:06:10.089Z,4.43
2023-02-25T10:07:10.076Z,4.43
2023-02-25T10:08:10.077Z,4.44
2023-02-25T10:09:10.054Z,4.46
2023-02-25T10:10:10.065Z,4.47
2023-02-25T10:11:10.075Z,4.52
2023-02-25T10:12:10.122Z,4.55
2023-02-25T10:13:10.008Z,4.59
2023-02-25T10:14:10.020Z,4.64
2023-02-25T10:15:10.001Z,4.65
2023-02-25T10:16:09.992Z,4.67
2023-02-25T10:17:09.968Z,4.64
2023-02-25T10:18:09.954Z,4.64
2023-02-25T10:19:09.945Z,4.65
2023-02-25T10:20:09.967Z,4.65
2023-02-25T10:21:09.938Z,4.69
2023-02-25T10:22:09.920Z,4.70
2023-02-25T10:23:09.896Z,4.73
2023-02-25T10:24:09.910Z,4.75
2023-02-25T10:25:09.894Z,4.76
2023-02-25T10:26:09.881Z,4.77
2023-02-25T10:27:09.858Z,4.83
2023-02-25T10:28:09.853Z,4.86
2023-02-25T10:29:09.849Z,4.79
2023-02-25T10:30:09.854Z,4.73
2023-02-25T10:31:09.978Z,4.67
2023-02-25T10:32:10.005Z,4.64
2023-02-25T10:33:09.804Z,4.61
2023-02-25T10:34:09.778Z,4.61
2023-02-25T10:35:09.773Z,4.58
2023-02-25T10:36:09.778Z,4.57
2023-02-25T10:37:09.745Z,4.54
2023-02-25T10:38:09.754Z,4.50
2023-02-25T10:39:09.731Z,4.44
2023-02-25T10:40:09.714Z,4.46
2023-02-25T10:41:09.741Z,4.44
2023-02-25T10:42:09.687Z,4.43
2023-02-25T10:43:09.681Z,4.37
2023-02-25T10:44:09.673Z,4.36
2023-02-25T10:45:09.680Z,4.36
2023-02-25T10:46:09.713Z,4.34
2023-02-25T10:47:09.636Z,4.36
2023-02-25T10:48:09.628Z,4.33
2023-02-25T10:49:15.779Z,4.33
2023-02-25T10:50:09.621Z,4.34
2023-02-25T10:51:09.619Z,4.36
2023-02-25T10:52:09.589Z,4.36
2023-02-25T10:53:09.581Z,4.36
2023-02-25T10:54:09.560Z,4.36
2023-02-25T10:55:09.553Z,4.39
2023-02-25T10:56:09.559Z,4.42
2023-02-25T10:57:09.537Z,4.44
2023-02-25T10:58:09.513Z,4.46
2023-02-25T10:59:09.548Z,4.51
2023-02-25T11:00:09.528Z,4.55
2023-02-25T11:01:09.536Z,4.57
2023-02-25T11:02:09.531Z,4.55
2023-02-25T11:03:09.497Z,4.57
2023-02-25T11:04:09.448Z,4.57
2023-02-25T11:05:09.454Z,4.57
2023-02-25T11:06:09.453Z,4.57
2023-02-25T11:07:09.419Z,4.55
2023-02-25T11:08:09.414Z,4.55
2023-02-25T11:09:09.407Z,4.57
2023-02-25T11:10:09.389Z,4.58
2023-02-25T11:11:09.395Z,4.58
2023-02-25T11:12:09.360Z,4.57
2023-02-25T11:13:09.366Z,4.58
2023-02-25T11:14:09.342Z,4.58
2023-02-25T11:15:09.359Z,4.61
2023-02-25T11:16:09.422Z,4.61
2023-02-25T11:17:09.336Z,4.57
2023-02-25T11:18:09.335Z,4.54
2023-02-25T11:19:09.310Z,4.55
2023-02-25T11:20:09.286Z,4.59
2023-02-25T11:21:09.290Z,4.61
2023-02-25T11:22:09.284Z,4.65
2023-02-25T11:23:09.244Z,4.65
2023-02-25T11:24:09.240Z,4.72
2023-02-25T11:25:09.223Z,4.77
2023-02-25T11:26:09.274Z,4.84
2023-02-25T11:27:09.205Z,4.91
2023-02-25T11:28:09.191Z,4.95
2023-02-25T11:29:09.191Z,4.96
2023-02-25T11:30:09.172Z,4.98
2023-02-25T11:31:09.265Z,4.99
2023-02-25T11:32:09.241Z,4.98
2023-02-25T11:33:10.968Z,4.99
2023-02-25T11:34:09.143Z,4.99
2023-02-25T11:35:09.122Z,4.96
2023-02-25T11:36:17.098Z,4.92
2023-02-25T11:37:09.491Z,4.95
2023-02-25T11:38:09.082Z,4.98
2023-02-25T11:39:09.070Z,4.99
2023-02-25T11:40:09.069Z,5.09
2023-02-25T11:41:09.082Z,5.14
2023-02-25T11:42:09.031Z,5.17
2023-02-25T11:43:09.030Z,5.17
2023-02-25T11:44:09.036Z,5.17
2023-02-25T11:45:09.003Z,5.17
2023-02-25T11:46:09.140Z,5.13
2023-02-25T11:47:09.009Z,5.13
2023-02-25T11:48:08.983Z,5.10
2023-02-25T11:49:08.986Z,5.04
2023-02-25T11:50:08.956Z,4.99
2023-02-25T11:51:08.954Z,5.01
2023-02-25T11:52:08.937Z,5.07
2023-02-25T11:53:08.921Z,5.13
2023-02-25T11:54:08.907Z,5.17
2023-02-25T11:55:09.067Z,5.25
2023-02-25T11:56:08.903Z,5.25
2023-02-25T11:57:08.878Z,5.19
2023-02-25T11:58:08.887Z,5.14
2023-02-25T11:59:08.858Z,5.05
2023-02-25T12:00:08.855Z,5.01
2023-02-25T12:01:10.513Z,4.99
2023-02-25T12:02:08.827Z,4.96
2023-02-25T12:03:08.831Z,4.94
2023-02-25T12:04:08.799Z,4.92
2023-02-25T12:05:08.783Z,4.89
2023-02-25T12:06:08.832Z,4.88
2023-02-25T12:07:08.810Z,4.88
2023-02-25T12:08:15.942Z,4.91
2023-02-25T12:09:08.785Z,4.98
2023-02-25T12:10:08.726Z,4.98
2023-02-25T12:11:08.737Z,5.02
2023-02-25T12:12:08.723Z,5.05
2023-02-25T12:13:08.709Z,5.12
2023-02-25T12:14:08.689Z,5.13
2023-02-25T12:15:08.678Z,5.19
2023-02-25T12:16:08.720Z,5.22
2023-02-25T12:17:08.666Z,5.23
2023-02-25T12:18:08.661Z,5.32
2023-02-25T12:19:08.637Z,5.41
2023-02-25T12:20:08.680Z,5.50
2023-02-25T12:21:08.655Z,5.60
2023-02-25T12:22:08.600Z,5.66
2023-02-25T12:23:08.583Z,5.64
2023-02-25T12:24:08.584Z,5.59
2023-02-25T12:25:08.563Z,5.53
2023-02-25T12:26:08.610Z,5.48
2023-02-25T12:27:08.552Z,5.46
2023-02-25T12:28:08.547Z,5.46
2023-02-25T12:29:08.558Z,5.45
2023-02-25T12:30:08.517Z,5.43
2023-02-25T12:31:08.563Z,5.37
2023-02-25T12:32:08.674Z,5.31
2023-02-25T12:33:08.487Z,5.27
2023-02-25T12:34:08.481Z,5.22
2023-02-25T12:35:08.483Z,5.17
2023-02-25T12:36:08.463Z,5.05
2023-02-25T12:37:08.447Z,5.01
2023-02-25T12:38:08.428Z,4.99
2023-02-25T12:39:08.423Z,4.99
2023-02-25T12:40:08.408Z,4.99
2023-02-25T12:41:08.424Z,4.98
2023-02-25T12:42:08.431Z,4.91
2023-02-25T12:43:08.375Z,4.86
2023-02-25T12:44:08.359Z,4.83
2023-02-25T12:45:08.348Z,4.84
2023-02-25T12:46:08.399Z,4.83
2023-02-25T12:47:08.332Z,4.88
2023-02-25T12:48:08.340Z,4.91
2023-02-25T12:49:08.316Z,4.96
2023-02-25T12:50:08.291Z,5.04
2023-02-25T12:51:08.316Z,5.10
2023-02-25T12:52:08.273Z,5.17
2023-02-25T12:53:08.287Z,5.25
2023-02-25T12:54:08.258Z,5.34
2023-02-25T12:55:08.253Z,5.43
2023-02-25T12:56:08.264Z,5.52
2023-02-25T12:57:08.231Z,5.59
2023-02-25T12:58:08.200Z,5.63
2023-02-25T12:59:08.196Z,5.66
2023-02-25T13:00:08.230Z,5.71
2023-02-25T13:01:08.239Z,5.75
2023-02-25T13:02:08.158Z,5.75
2023-02-25T13:03:08.168Z,5.77
2023-02-25T13:04:08.240Z,5.73
2023-02-25T13:05:08.147Z,5.68
2023-02-25T13:06:08.132Z,5.60
2023-02-25T13:07:08.112Z,5.64
2023-02-25T13:08:08.097Z,5.64
2023-02-25T13:09:08.096Z,5.64
2023-02-25T13:10:08.115Z,5.57
2023-02-25T13:11:08.097Z,5.56
2023-02-25T13:12:12.519Z,5.55
2023-02-25T13:13:08.055Z,5.50
2023-02-25T13:14:08.058Z,5.50
2023-02-25T13:15:08.018Z,5.49
2023-02-25T13:16:08.103Z,5.55
2023-02-25T13:17:07.997Z,5.59
2023-02-25T13:18:08.003Z,5.70